createdAt,value
2017-05-13T00:01:52.312Z,83.40
2017-05-13T00:04:20.684Z,83.30
2017-05-13T00:06:48.952Z,82.70
2017-05-13T00:09:17.243Z,82.60
2017-05-13T00:11:45.515Z,82.30
2017-05-13T00:14:14.482Z,82.70
2017-05-13T00:16:42.759Z,82.90
2017-05-13T00:19:11.071Z,82.90
2017-05-13T00:21:39.349Z,83.20
2017-05-13T00:24:07.724Z,83.30
2017-05-13T00:26:36.003Z,83.60
2017-05-13T00:29:04.294Z,83.90
2017-05-13T00:31:32.583Z,84.00
2017-05-13T00:34:02.361Z,83.90
2017-05-13T00:36:30.822Z,84.00
2017-05-13T00:38:59.095Z,83.50
2017-05-13T00:41:27.399Z,83.10
2017-05-13T00:43:55.755Z,83.20
2017-05-13T00:46:24.135Z,83.40
2017-05-13T00:48:52.407Z,83.10
2017-05-13T00:51:20.797Z,83.10
2017-05-13T00:53:49.068Z,83.10
2017-05-13T00:56:17.358Z,83.30
2017-05-13T00:58:45.719Z,83.50
2017-05-13T01:01:14.026Z,83.20
2017-05-13T01:03:42.319Z,83.00
2017-05-13T01:06:11.863Z,82.20
2017-05-13T01:08:40.152Z,81.00
2017-05-13T01:11:08.446Z,80.40
2017-05-13T01:13:36.739Z,81.00
2017-05-13T01:16:05.083Z,81.30
2017-05-13T01:18:33.371Z,81.90
2017-05-13T01:21:01.643Z,82.20
2017-05-13T01:23:29.931Z,82.60
2017-05-13T01:25:58.204Z,82.70
2017-05-13T01:28:26.491Z,81.70
2017-05-13T01:30:54.764Z,82.50
2017-05-13T01:33:23.071Z,81.70
2017-05-13T01:35:52.087Z,81.00
2017-05-13T01:38:20.393Z,80.90
2017-05-13T01:40:48.739Z,80.60
2017-05-13T01:43:17.012Z,80.90
2017-05-13T01:45:45.299Z,81.10
2017-05-13T01:48:13.575Z,81.10
2017-05-13T01:50:41.877Z,82.60
2017-05-13T01:53:10.151Z,82.50
2017-05-13T01:55:38.464Z,83.10
2017-05-13T01:58:07.511Z,81.90
2017-05-13T02:00:35.799Z,82.30
2017-05-13T02:03:04.071Z,83.60
2017-05-13T02:05:32.354Z,82.30
2017-05-13T02:08:00.662Z,82.10
2017-05-13T02:10:29.911Z,82.10
2017-05-13T02:12:58.286Z,82.40
2017-05-13T02:15:26.667Z,82.50
2017-05-13T02:17:54.953Z,82.30
2017-05-13T02:20:23.325Z,82.90
2017-05-13T02:22:51.633Z,83.40
2017-05-13T02:25:19.907Z,83.60
2017-05-13T02:27:48.677Z,83.40
2017-05-13T02:30:17.371Z,83.50
2017-05-13T02:32:45.738Z,82.80
2017-05-13T02:35:14.163Z,82.50
2017-05-13T02:37:43.205Z,82.50
2017-05-13T02:40:11.574Z,82.40
2017-05-13T02:42:39.847Z,82.30
2017-05-13T02:45:08.219Z,82.00
2017-05-13T02:47:36.511Z,82.30
2017-05-13T02:50:04.799Z,81.80
2017-05-13T02:52:33.174Z,82.10
2017-05-13T02:55:01.535Z,82.10
2017-05-13T02:57:29.807Z,81.80
2017-05-13T02:59:58.075Z,81.70
2017-05-13T03:02:26.368Z,81.60
2017-05-13T03:04:54.648Z,81.30
2017-05-13T03:07:23.019Z,81.30
2017-05-13T03:09:51.295Z,81.30
2017-05-13T03:12:19.598Z,81.10
2017-05-13T03:14:47.949Z,82.00
2017-05-13T03:17:16.243Z,82.30
2017-05-13T03:19:44.515Z,82.50
2017-05-13T03:22:12.814Z,82.30
2017-05-13T03:24:41.087Z,82.90
2017-05-13T03:27:09.359Z,82.70
2017-05-13T03:29:37.642Z,82.80
2017-05-13T03:32:05.911Z,82.90
2017-05-13T03:34:34.782Z,82.60
2017-05-13T03:37:03.144Z,82.40
2017-05-13T03:39:31.492Z,82.70
2017-05-13T03:41:59.769Z,82.70
2017-05-13T03:44:28.071Z,82.60
2017-05-13T03:46:56.462Z,82.80
2017-05-13T03:49:24.845Z,82.70
2017-05-13T03:51:53.210Z,82.80
2017-05-13T03:54:21.484Z,83.10
2017-05-13T03:56:49.872Z,82.70
2017-05-13T03:59:18.240Z,82.80
2017-05-13T04:01:46.527Z,82.70
2017-05-13T04:04:14.895Z,82.60
2017-05-13T04:06:43.187Z,82.60
2017-05-13T04:09:11.558Z,83.00
2017-05-13T04:11:39.927Z,82.50
2017-05-13T04:14:08.234Z,82.40
2017-05-13T04:16:36.584Z,82.00
2017-05-13T04:19:04.871Z,82.40
2017-05-13T04:21:33.161Z,82.40
2017-05-13T04:24:01.536Z,82.60
2017-05-13T04:26:29.886Z,82.70
2017-05-13T04:28:58.735Z,82.30
2017-05-13T04:31:27.786Z,82.40
2017-05-13T04:33:56.081Z,82.30
2017-05-13T04:36:24.352Z,83.20
2017-05-13T04:38:52.663Z,83.60
2017-05-13T04:41:20.949Z,84.20
2017-05-13T04:43:49.224Z,83.50
2017-05-13T04:46:17.512Z,83.50
2017-05-13T04:48:45.803Z,82.50
2017-05-13T04:51:14.179Z,82.40
2017-05-13T04:53:42.448Z,82.60
2017-05-13T04:56:10.766Z,83.30
2017-05-13T04:58:39.038Z,82.30
2017-05-13T05:01:07.384Z,81.10
2017-05-13T05:03:35.684Z,79.60
2017-05-13T05:06:04.359Z,79.70
2017-05-13T05:08:32.661Z,80.80
2017-05-13T05:11:00.935Z,82.10
2017-05-13T05:13:29.238Z,84.10
2017-05-13T05:15:57.516Z,85.20
2017-05-13T05:18:25.846Z,85.00
2017-05-13T05:20:54.207Z,82.40
2017-05-13T05:23:22.583Z,83.00
2017-05-13T05:25:50.958Z,82.00
2017-05-13T05:28:19.245Z,80.30
2017-05-13T05:30:47.746Z,82.80
2017-05-13T05:33:16.056Z,82.80
2017-05-13T05:35:45.071Z,81.20
2017-05-13T05:38:13.358Z,82.00
2017-05-13T05:40:41.648Z,81.70
2017-05-13T05:43:09.938Z,81.20
2017-05-13T05:45:38.512Z,80.80
2017-05-13T05:48:06.794Z,79.70
2017-05-13T05:50:35.098Z,80.10
2017-05-13T05:53:04.115Z,80.70
2017-05-13T05:55:32.415Z,80.50
2017-05-13T05:58:00.714Z,81.60
2017-05-13T06:00:29.090Z,81.60
2017-05-13T06:02:58.146Z,81.80
2017-05-13T06:05:26.433Z,82.70
2017-05-13T06:07:54.738Z,80.90
2017-05-13T06:10:23.015Z,79.60
2017-05-13T06:12:51.303Z,79.10
2017-05-13T06:15:19.659Z,78.80
2017-05-13T06:17:47.950Z,78.60
2017-05-13T06:20:16.313Z,78.40
2017-05-13T06:22:44.684Z,76.90
2017-05-13T06:25:13.471Z,76.10
2017-05-13T06:27:41.763Z,75.10
2017-05-13T06:30:10.141Z,76.70
2017-05-13T06:32:38.429Z,74.40
2017-05-13T06:35:06.738Z,75.10
2017-05-13T06:37:35.754Z,74.70
2017-05-13T06:40:04.147Z,72.30
2017-05-13T06:42:32.442Z,72.40
2017-05-13T06:45:00.770Z,72.60
2017-05-13T06:47:29.079Z,73.50
2017-05-13T06:49:57.355Z,72.50
2017-05-13T06:52:25.648Z,72.20
2017-05-13T06:54:53.915Z,71.90
2017-05-13T06:57:22.218Z,69.90
2017-05-13T06:59:50.495Z,69.20
2017-05-13T07:02:19.531Z,70.70
2017-05-13T07:04:47.807Z,71.30
2017-05-13T07:07:16.090Z,70.90
2017-05-13T07:09:44.358Z,69.90
2017-05-13T07:12:12.661Z,68.30
2017-05-13T07:14:40.954Z,69.80
2017-05-13T07:17:09.243Z,65.00
2017-05-13T07:19:37.515Z,65.50
2017-05-13T07:22:05.809Z,67.80
2017-05-13T07:24:35.528Z,67.90
2017-05-13T07:27:04.554Z,64.70
2017-05-13T07:29:32.841Z,66.30
2017-05-13T07:32:01.215Z,64.50
2017-05-13T07:34:29.586Z,63.80
2017-05-13T07:36:57.867Z,63.70
2017-05-13T07:39:26.263Z,63.50
2017-05-13T07:41:54.540Z,62.80
2017-05-13T07:44:22.851Z,62.00
2017-05-13T07:46:51.890Z,64.50
2017-05-13T07:49:20.162Z,61.10
2017-05-13T07:51:48.561Z,62.70
2017-05-13T07:54:16.923Z,63.10
2017-05-13T07:56:45.210Z,61.60
2017-05-13T07:59:13.484Z,62.90
2017-05-13T08:01:41.857Z,62.60
2017-05-13T08:04:10.131Z,59.70
2017-05-13T08:06:38.512Z,60.90
2017-05-13T08:09:06.817Z,61.50
2017-05-13T08:11:35.091Z,60.40
2017-05-13T08:14:03.380Z,60.40
2017-05-13T08:16:32.401Z,64.00
2017-05-13T08:19:00.707Z,60.30
2017-05-13T08:21:29.086Z,60.30
2017-05-13T08:23:57.779Z,63.10
2017-05-13T08:26:26.052Z,61.40
2017-05-13T08:28:54.355Z,62.10
2017-05-13T08:31:22.653Z,59.30
2017-05-13T08:33:51.677Z,60.20
2017-05-13T08:36:19.978Z,61.80
2017-05-13T08:38:48.272Z,61.80
2017-05-13T08:41:16.558Z,62.70
2017-05-13T08:43:44.828Z,61.20
2017-05-13T08:46:13.172Z,63.20
2017-05-13T08:48:41.458Z,58.60
2017-05-13T08:51:09.742Z,57.90
2017-05-13T08:53:38.411Z,57.50
2017-05-13T08:56:06.695Z,58.30
2017-05-13T08:58:34.995Z,58.60
2017-05-13T09:01:03.455Z,58.50
2017-05-13T09:03:31.746Z,59.40
2017-05-13T09:06:00.015Z,60.60
2017-05-13T09:08:28.299Z,61.20
2017-05-13T09:10:56.573Z,62.10
2017-05-13T09:13:24.880Z,62.60
2017-05-13T09:15:53.892Z,62.30
2017-05-13T09:18:22.187Z,63.20
2017-05-13T09:20:50.490Z,63.20
2017-05-13T09:23:19.252Z,63.20
2017-05-13T09:25:47.551Z,63.70
2017-05-13T09:28:15.841Z,63.70
2017-05-13T09:30:44.187Z,64.40
2017-05-13T09:33:12.602Z,66.30
2017-05-13T09:35:41.638Z,70.70
2017-05-13T09:38:10.027Z,74.00
2017-05-13T09:40:38.307Z,75.00
2017-05-13T09:43:06.947Z,76.30
2017-05-13T09:45:35.983Z,77.80
2017-05-13T09:48:04.281Z,80.00
2017-05-13T09:50:32.557Z,80.80
2017-05-13T09:53:01.120Z,76.10
2017-05-13T09:55:29.510Z,78.70
2017-05-13T09:57:57.779Z,78.30
2017-05-13T10:00:26.151Z,79.20
2017-05-13T10:02:54.433Z,80.80
2017-05-13T10:05:22.806Z,79.80
2017-05-13T10:07:51.074Z,82.50
2017-05-13T10:10:19.459Z,81.80
2017-05-13T10:12:47.726Z,80.90
2017-05-13T10:15:16.029Z,76.80
2017-05-13T10:17:44.315Z,78.50
2017-05-13T10:20:12.587Z,82.20
2017-05-13T10:22:41.645Z,81.40
2017-05-13T10:25:09.915Z,81.10
2017-05-13T10:27:38.311Z,80.70
2017-05-13T10:30:06.699Z,82.50
2017-05-13T10:32:34.978Z,76.60
2017-05-13T10:35:03.339Z,70.80
2017-05-13T10:37:31.643Z,68.00
2017-05-13T10:39:59.971Z,61.10
2017-05-13T10:42:28.254Z,60.90
2017-05-13T10:44:56.651Z,62.70
2017-05-13T10:47:24.970Z,62.70
2017-05-13T10:49:53.322Z,67.40
2017-05-13T10:52:21.693Z,67.70
2017-05-13T10:54:50.055Z,65.80
2017-05-13T10:57:18.318Z,67.00
2017-05-13T10:59:47.003Z,71.60
2017-05-13T11:02:15.417Z,72.70
2017-05-13T11:04:43.774Z,73.70
2017-05-13T11:07:12.060Z,73.50
2017-05-13T11:09:40.427Z,75.50
2017-05-13T11:12:08.731Z,74.90
2017-05-13T11:14:37.008Z,76.40
2017-05-13T11:17:05.295Z,74.40
2017-05-13T11:19:33.820Z,76.80
2017-05-13T11:22:09.525Z,79.10
2017-05-13T11:24:37.801Z,80.90
2017-05-13T11:27:06.079Z,81.50
2017-05-13T11:29:34.371Z,81.30
2017-05-13T11:32:02.644Z,76.10
2017-05-13T11:34:31.004Z,75.20
2017-05-13T11:36:59.283Z,75.70
2017-05-13T11:39:27.595Z,75.90
2017-05-13T11:41:55.868Z,74.70
2017-05-13T11:44:24.419Z,63.20
2017-05-13T11:46:52.792Z,63.20
2017-05-13T11:49:21.169Z,61.90
2017-05-13T11:51:49.468Z,66.60
2017-05-13T11:54:17.795Z,68.90
2017-05-13T11:56:46.102Z,71.20
2017-05-13T11:59:14.375Z,68.90
2017-05-13T12:01:42.655Z,66.60
2017-05-13T12:04:10.944Z,73.10
2017-05-13T12:06:39.219Z,76.80
2017-05-13T12:09:07.511Z,77.30
2017-05-13T12:11:35.851Z,75.00
2017-05-13T12:14:04.147Z,72.90
2017-05-13T12:16:32.509Z,75.40
2017-05-13T12:19:00.882Z,75.20
2017-05-13T12:21:29.155Z,72.00
2017-05-13T12:23:57.442Z,73.30
2017-05-13T12:26:25.816Z,72.50
2017-05-13T12:28:54.119Z,73.80
2017-05-13T12:31:22.467Z,70.30
2017-05-13T12:33:50.739Z,65.00
2017-05-13T12:36:19.118Z,67.20
2017-05-13T12:38:47.387Z,68.90
2017-05-13T12:41:15.775Z,67.10
2017-05-13T12:43:44.051Z,66.60
2017-05-13T12:46:12.343Z,64.20
2017-05-13T12:48:40.615Z,68.00
2017-05-13T12:51:08.980Z,71.10
2017-05-13T12:53:37.359Z,69.20
2017-05-13T12:56:05.654Z,65.70
2017-05-13T12:58:33.929Z,64.50
2017-05-13T13:01:02.203Z,68.60
2017-05-13T13:03:30.492Z,59.50
2017-05-13T13:05:58.776Z,60.00
2017-05-13T13:08:27.070Z,59.10
2017-05-13T13:10:56.083Z,57.90
2017-05-13T13:13:24.374Z,58.60
2017-05-13T13:15:52.648Z,58.00
2017-05-13T13:18:21.036Z,54.80
2017-05-13T13:20:50.027Z,54.00
2017-05-13T13:23:18.327Z,57.40
2017-05-13T13:25:46.703Z,56.10
2017-05-13T13:28:14.975Z,55.50
2017-05-13T13:30:43.339Z,54.60
2017-05-13T13:33:11.611Z,53.90
2017-05-13T13:35:39.899Z,53.30
2017-05-13T13:38:08.172Z,55.30
2017-05-13T13:40:36.464Z,54.20
2017-05-13T13:43:04.740Z,53.20
2017-05-13T13:45:33.101Z,55.10
2017-05-13T13:48:01.391Z,54.40
2017-05-13T13:50:29.662Z,55.70
2017-05-13T13:52:57.959Z,53.40
2017-05-13T13:55:26.567Z,54.20
2017-05-13T13:57:55.600Z,54.40
2017-05-13T14:00:23.980Z,52.60
2017-05-13T14:02:52.355Z,52.50
2017-05-13T14:05:20.627Z,54.00
2017-05-13T14:07:49.007Z,55.20
2017-05-13T14:10:17.387Z,54.40
2017-05-13T14:12:45.763Z,54.10
2017-05-13T14:15:14.144Z,55.70
2017-05-13T14:17:42.415Z,55.80
2017-05-13T14:20:10.707Z,55.00
2017-05-13T14:22:39.071Z,55.00
2017-05-13T14:25:07.363Z,54.40
2017-05-13T14:27:35.640Z,55.20
2017-05-13T14:30:03.944Z,56.20
2017-05-13T14:32:33.011Z,55.90
2017-05-13T14:35:01.287Z,55.60
2017-05-13T14:37:29.575Z,56.10
2017-05-13T14:39:57.848Z,54.80
2017-05-13T14:42:26.154Z,53.80
2017-05-13T14:44:54.439Z,53.10
2017-05-13T14:47:22.731Z,54.00
2017-05-13T14:49:51.743Z,53.90
2017-05-13T14:52:20.035Z,50.50
2017-05-13T14:54:48.310Z,45.20
2017-05-13T14:57:16.599Z,40.20
2017-05-13T14:59:44.872Z,36.10
2017-05-13T15:02:13.532Z,37.70
2017-05-13T15:04:41.807Z,41.10
2017-05-13T15:07:10.103Z,41.60
2017-05-13T15:09:38.376Z,42.30
2017-05-13T15:12:06.647Z,47.00
2017-05-13T15:14:34.944Z,45.50
2017-05-13T15:17:03.216Z,48.60
2017-05-13T15:19:31.514Z,48.80
2017-05-13T15:22:00.533Z,46.60
2017-05-13T15:24:28.831Z,40.90
2017-05-13T15:26:57.107Z,37.70
2017-05-13T15:29:25.384Z,31.60
2017-05-13T15:31:53.726Z,28.70
2017-05-13T15:34:22.736Z,28.90
2017-05-13T15:36:51.042Z,26.60
2017-05-13T15:39:19.323Z,24.90
2017-05-13T15:41:48.091Z,23.50
2017-05-13T15:44:16.364Z,24.30
2017-05-13T15:46:44.655Z,26.00
2017-05-13T15:49:12.954Z,27.90
2017-05-13T15:51:41.308Z,29.40
2017-05-13T15:54:09.603Z,30.70
2017-05-13T15:56:37.879Z,28.50
2017-05-13T15:59:06.168Z,28.10
2017-05-13T16:01:35.195Z,29.50
2017-05-13T16:04:03.482Z,30.60
2017-05-13T16:06:31.755Z,33.30
2017-05-13T16:09:00.148Z,34.40
2017-05-13T16:11:28.527Z,38.30
2017-05-13T16:13:58.111Z,39.20
2017-05-13T16:16:26.511Z,40.60
2017-05-13T16:18:54.890Z,42.60
2017-05-13T16:21:23.268Z,44.00
2017-05-13T16:23:51.647Z,42.90
2017-05-13T16:26:19.935Z,44.10
2017-05-13T16:28:48.214Z,44.00
2017-05-13T16:31:16.575Z,43.90
2017-05-13T16:33:44.847Z,46.00
2017-05-13T16:36:13.128Z,47.40
2017-05-13T16:38:41.418Z,45.80
2017-05-13T16:41:09.691Z,46.00
2017-05-13T16:43:37.979Z,45.60
2017-05-13T16:46:06.251Z,45.70
2017-05-13T16:48:34.547Z,46.00
2017-05-13T16:51:02.823Z,46.70
2017-05-13T16:53:31.155Z,47.10
2017-05-13T16:55:59.428Z,47.50
2017-05-13T16:58:27.816Z,47.70
2017-05-13T17:00:56.191Z,48.10
2017-05-13T17:03:24.479Z,48.40
2017-05-13T17:05:52.756Z,48.80
2017-05-13T17:08:21.049Z,48.90
2017-05-13T17:10:49.320Z,49.00
2017-05-13T17:13:17.611Z,50.30
2017-05-13T17:15:45.883Z,50.80
2017-05-13T17:18:14.171Z,51.20
2017-05-13T17:20:43.186Z,51.70
2017-05-13T17:23:11.483Z,53.00
2017-05-13T17:25:39.756Z,53.90
2017-05-13T17:28:08.027Z,54.20
2017-05-13T17:30:36.319Z,54.80
2017-05-13T17:33:05.313Z,55.50
2017-05-13T17:35:33.603Z,55.90
2017-05-13T17:38:01.876Z,56.10
2017-05-13T17:40:30.175Z,56.20
2017-05-13T17:42:58.524Z,57.00
2017-05-13T17:45:26.852Z,58.10
2017-05-13T17:47:56.783Z,58.70
2017-05-13T17:50:25.286Z,58.70
2017-05-13T17:52:53.575Z,59.20
2017-05-13T17:55:21.856Z,59.90
2017-05-13T17:57:50.229Z,62.40
2017-05-13T18:00:18.596Z,63.80
2017-05-13T18:02:47.572Z,63.80
2017-05-13T18:05:16.115Z,64.40
2017-05-13T18:07:45.155Z,65.40
2017-05-13T18:10:13.428Z,66.50
2017-05-13T18:12:41.735Z,69.40
2017-05-13T18:15:10.015Z,69.80
2017-05-13T18:17:38.287Z,70.40
2017-05-13T18:20:06.603Z,71.50
2017-05-13T18:22:35.620Z,71.70
2017-05-13T18:25:04.016Z,71.00
2017-05-13T18:27:32.291Z,70.90
2017-05-13T18:30:00.583Z,69.40
2017-05-13T18:32:28.860Z,69.40
2017-05-13T18:34:57.152Z,71.20
2017-05-13T18:37:25.506Z,71.60
2017-05-13T18:39:53.803Z,69.60
2017-05-13T18:42:22.075Z,71.60
2017-05-13T18:44:50.347Z,72.20
2017-05-13T18:47:18.635Z,74.00
2017-05-13T18:49:46.912Z,75.40
2017-05-13T18:52:15.262Z,76.20
2017-05-13T18:54:43.536Z,76.80
2017-05-13T18:57:11.829Z,76.50
2017-05-13T18:59:40.431Z,76.40
2017-05-13T19:02:08.722Z,75.70
2017-05-13T19:04:37.760Z,75.50
2017-05-13T19:07:06.049Z,73.80
2017-05-13T19:09:34.331Z,70.70
2017-05-13T19:12:02.606Z,71.00
2017-05-13T19:14:30.976Z,72.20
2017-05-13T19:16:59.263Z,72.60
2017-05-13T19:19:27.556Z,75.80
2017-05-13T19:21:55.831Z,78.50
2017-05-13T19:24:24.128Z,76.30
2017-05-13T19:26:53.144Z,75.70
2017-05-13T19:29:22.323Z,75.70
2017-05-13T19:31:50.641Z,76.10
2017-05-13T19:34:18.918Z,76.60
2017-05-13T19:36:47.212Z,75.60
2017-05-13T19:39:15.484Z,76.20
2017-05-13T19:41:43.787Z,76.50
2017-05-13T19:44:12.803Z,77.00
2017-05-13T19:46:41.730Z,77.00
2017-05-13T19:49:10.005Z,77.00
2017-05-13T19:51:38.300Z,77.30
2017-05-13T19:54:06.576Z,77.50
2017-05-13T19:56:34.846Z,78.00
2017-05-13T19:59:03.205Z,78.00
2017-05-13T20:01:31.487Z,77.80
2017-05-13T20:03:59.856Z,79.90
2017-05-13T20:06:28.129Z,77.90
2017-05-13T20:08:56.511Z,77.40
2017-05-13T20:11:25.101Z,77.00
2017-05-13T20:13:53.387Z,77.60
2017-05-13T20:16:21.660Z,78.10
2017-05-13T20:18:49.956Z,77.60
2017-05-13T20:21:18.241Z,77.00
2017-05-13T20:23:47.316Z,76.30
2017-05-13T20:26:15.597Z,76.90
2017-05-13T20:28:43.871Z,78.60
2017-05-13T20:31:12.226Z,79.80
2017-05-13T20:33:40.504Z,79.30
2017-05-13T20:36:08.815Z,79.90
2017-05-13T20:38:37.152Z,79.70
2017-05-13T20:41:05.427Z,80.20
2017-05-13T20:43:33.721Z,81.10
2017-05-13T20:46:01.995Z,80.60
2017-05-13T20:48:30.556Z,80.40
2017-05-13T20:50:59.148Z,80.20
2017-05-13T20:53:27.443Z,79.80
2017-05-13T20:55:55.719Z,80.10
2017-05-13T20:58:24.077Z,80.30
2017-05-13T21:00:52.357Z,79.80
2017-05-13T21:03:20.732Z,79.70
2017-05-13T21:05:49.003Z,79.60
2017-05-13T21:08:17.295Z,80.10
2017-05-13T21:10:45.571Z,80.80
2017-05-13T21:13:14.396Z,80.30
2017-05-13T21:15:43.435Z,80.60
2017-05-13T21:18:11.711Z,79.70
2017-05-13T21:20:40.092Z,79.60
2017-05-13T21:23:08.367Z,80.50
2017-05-13T21:25:36.659Z,79.40
2017-05-13T21:28:04.934Z,79.80
2017-05-13T21:30:33.295Z,79.50
2017-05-13T21:33:01.567Z,79.50
2017-05-13T21:35:29.839Z,79.70
2017-05-13T21:38:03.823Z,79.50
2017-05-13T21:40:32.099Z,79.30
2017-05-13T21:43:00.419Z,78.60
2017-05-13T21:45:28.695Z,79.10
2017-05-13T21:47:56.983Z,79.40
2017-05-13T21:50:25.276Z,79.50
2017-05-13T21:52:53.616Z,79.90
2017-05-13T21:55:21.891Z,80.00
2017-05-13T21:57:50.182Z,79.20
2017-05-13T22:00:18.543Z,79.90
2017-05-13T22:02:46.944Z,80.00
2017-05-13T22:05:15.220Z,80.00
2017-05-13T22:07:43.507Z,79.40
2017-05-13T22:10:11.780Z,79.30
2017-05-13T22:12:40.071Z,79.60
2017-05-13T22:15:09.119Z,79.80
2017-05-13T22:17:37.408Z,80.20
2017-05-13T22:20:06.091Z,79.40
2017-05-13T22:22:34.460Z,79.80
2017-05-13T22:25:02.740Z,79.50
2017-05-13T22:27:31.032Z,80.00
2017-05-13T22:29:59.318Z,80.80
2017-05-13T22:32:27.591Z,80.30
2017-05-13T22:34:55.940Z,80.60
2017-05-13T22:37:24.215Z,80.00
2017-05-13T22:39:52.503Z,80.30
2017-05-13T22:42:20.847Z,79.90
2017-05-13T22:44:49.136Z,80.30
2017-05-13T22:47:17.407Z,80.30
2017-05-13T22:49:46.375Z,80.00
2017-05-13T22:52:14.679Z,80.00
2017-05-13T22:54:42.952Z,79.60
2017-05-13T22:57:11.244Z,80.30
2017-05-13T22:59:39.729Z,80.00
2017-05-13T23:02:08.063Z,79.60
2017-05-13T23:04:37.068Z,80.30
2017-05-13T23:07:05.351Z,80.00
2017-05-13T23:09:34.049Z,81.20
2017-05-13T23:12:02.431Z,80.00
2017-05-13T23:14:30.703Z,79.70
2017-05-13T23:16:59.084Z,80.40
2017-05-13T23:19:27.827Z,81.00
2017-05-13T23:21:56.849Z,80.40
2017-05-13T23:24:25.243Z,79.90
2017-05-13T23:26:53.620Z,80.20
2017-05-13T23:29:21.915Z,80.60
2017-05-13T23:31:50.187Z,81.00
2017-05-13T23:34:18.488Z,80.90
2017-05-13T23:36:47.506Z,81.50
2017-05-13T23:39:15.819Z,80.80
2017-05-13T23:41:44.091Z,79.90
2017-05-13T23:44:12.480Z,79.50
2017-05-13T23:46:40.763Z,79.50
2017-05-13T23:49:09.493Z,80.70
2017-05-13T23:51:38.524Z,80.20
2017-05-13T23:54:06.796Z,80.80
2017-05-13T23:56:35.091Z,80.20
2017-05-13T23:59:03.372Z,81.20
